Time;durP1;ratioP1;P1;durP2;ratioP2;P2;SDS_P1;SDS_P2;PMS_P1;PMS_P2;Temp;Humidity;BMP_temperature;BMP_pressure;BME280_temperature;BME280_humidity;BME280_pressure;Samples;Min_cycle;Max_cycle;Signal;HPM_P1;HPM_P2
2020/12/21 00:02:29;;;;;;;43.05;25.75;;;22.00;34.00;;;;;;6180731;28;83149;-50
2020/12/21 00:05:30;;;;;;;40.38;24.65;;;22.00;33.90;;;;;;6176462;27;84016;-50
2020/12/21 00:08:30;;;;;;;44.03;26.00;;;22.00;33.90;;;;;;6172545;28;84313;-50
2020/12/21 00:11:31;;;;;;;43.00;25.75;;;22.00;33.90;;;;;;6179891;28;83269;-48
2020/12/21 00:14:31;;;;;;;42.17;25.10;;;22.00;33.90;;;;;;6178047;28;83462;-49
2020/12/21 00:17:32;;;;;;;38.53;23.55;;;21.90;33.80;;;;;;6179258;28;84705;-51
2020/12/21 00:20:33;;;;;;;42.33;25.70;;;21.90;33.90;;;;;;6182665;27;83010;-47
2020/12/21 00:23:33;;;;;;;42.72;24.80;;;21.90;33.80;;;;;;6178670;28;83849;-50
2020/12/21 00:26:34;;;;;;;39.00;24.42;;;21.90;33.90;;;;;;6177695;28;83904;-51
2020/12/21 00:29:34;;;;;;;40.75;23.95;;;21.90;33.80;;;;;;6180993;28;82890;-50
2020/12/21 00:32:35;;;;;;;41.78;24.08;;;21.90;33.90;;;;;;6191321;28;83042;-50
2020/12/21 00:35:35;;;;;;;38.50;23.90;;;21.90;34.00;;;;;;6180359;28;83080;-52
2020/12/21 00:38:36;;;;;;;39.88;23.33;;;21.90;33.90;;;;;;6182081;28;83899;-50
2020/12/21 00:41:36;;;;;;;35.33;21.83;;;21.90;34.00;;;;;;6181642;27;84218;-49
2020/12/21 00:44:37;;;;;;;34.55;20.85;;;21.90;34.20;;;;;;6177384;28;83384;-51
2020/12/21 00:47:37;;;;;;;34.97;21.08;;;21.90;34.50;;;;;;6188608;28;83122;-48
2020/12/21 00:50:38;;;;;;;33.95;20.20;;;21.90;34.50;;;;;;6178536;28;85387;-48
2020/12/21 00:53:38;;;;;;;32.17;20.63;;;21.90;34.70;;;;;;6157062;27;83963;-50
2020/12/21 00:56:39;;;;;;;32.47;19.83;;;21.90;34.70;;;;;;6178965;28;83453;-48
2020/12/21 00:59:40;;;;;;;30.83;18.88;;;21.90;34.50;;;;;;6159816;28;84430;-47
2020/12/21 01:02:40;;;;;;;32.10;19.38;;;21.90;34.80;;;;;;6170689;28;84008;-53
2020/12/21 01:05:41;;;;;;;29.75;18.75;;;21.90;34.80;;;;;;6161383;28;83693;-49
2020/12/21 01:08:41;;;;;;;27.52;18.50;;;21.90;34.70;;;;;;6163682;28;84133;-48
2020/12/21 01:11:42;;;;;;;29.45;18.55;;;21.90;34.80;;;;;;6184564;28;83486;-50
2020/12/21 01:14:42;;;;;;;29.05;17.63;;;21.90;34.70;;;;;;6181431;28;84651;-49
2020/12/21 01:17:43;;;;;;;31.30;17.90;;;21.90;34.80;;;;;;6155176;28;83302;-49
2020/12/21 01:20:43;;;;;;;27.67;17.60;;;21.90;34.90;;;;;;6152633;28;84040;-52
2020/12/21 01:23:44;;;;;;;27.33;16.10;;;21.90;35.00;;;;;;6129422;28;83409;-52
2020/12/21 01:26:44;;;;;;;27.70;17.45;;;21.90;34.90;;;;;;6156926;28;84087;-51
2020/12/21 01:29:45;;;;;;;27.17;17.02;;;21.90;35.00;;;;;;6151599;28;84844;-50
2020/12/21 01:32:45;;;;;;;27.85;16.75;;;21.90;35.00;;;;;;6180833;28;84281;-49
2020/12/21 01:35:46;;;;;;;25.42;16.40;;;21.90;35.00;;;;;;6187913;27;84073;-49
2020/12/21 01:38:46;;;;;;;25.50;17.58;;;21.80;35.10;;;;;;6181077;28;85533;-48
2020/12/21 01:41:47;;;;;;;29.88;17.63;;;21.80;35.00;;;;;;6179875;27;83318;-49
2020/12/21 01:44:48;;;;;;;26.55;17.30;;;21.80;34.90;;;;;;6175094;28;85958;-48
2020/12/21 01:47:49;;;;;;;25.75;17.70;;;21.90;34.90;;;;;;6178275;28;86786;-55
2020/12/21 01:50:49;;;;;;;29.15;16.75;;;21.80;35.00;;;;;;6184254;28;83190;-49
2020/12/21 01:53:50;;;;;;;24.98;16.10;;;21.80;34.80;;;;;;6177180;27;83554;-50
2020/12/21 01:56:50;;;;;;;26.77;17.00;;;21.80;34.90;;;;;;6176724;28;83851;-53
2020/12/21 01:59:51;;;;;;;24.98;16.20;;;21.80;35.50;;;;;;6178773;27;84450;-47
2020/12/21 02:02:51;;;;;;;28.17;17.70;;;21.80;34.90;;;;;;6183220;28;84659;-48
2020/12/21 02:05:52;;;;;;;29.10;18.25;;;21.80;34.90;;;;;;6175686;27;82901;-47
2020/12/21 02:08:52;;;;;;;26.77;16.65;;;21.80;34.60;;;;;;6177111;28;83443;-47
2020/12/21 02:11:53;;;;;;;25.60;16.58;;;21.80;34.80;;;;;;6177389;28;83456;-49
2020/12/21 02:14:53;;;;;;;27.45;17.13;;;21.80;34.80;;;;;;6177505;28;83481;-48
2020/12/21 02:17:54;;;;;;;30.52;18.05;;;21.70;34.50;;;;;;6181945;28;83400;-48
2020/12/21 02:20:54;;;;;;;28.20;17.33;;;21.80;34.50;;;;;;6167804;28;83559;-48
2020/12/21 02:23:55;;;;;;;27.67;15.45;;;21.80;34.50;;;;;;6181182;27;83241;-48
2020/12/21 02:26:55;;;;;;;28.00;16.77;;;21.70;34.50;;;;;;6175298;28;83261;-49
2020/12/21 02:29:56;;;;;;;27.65;17.50;;;21.70;34.40;;;;;;6178333;27;83725;-49
2020/12/21 02:32:56;;;;;;;26.98;16.88;;;21.70;34.20;;;;;;6181099;28;82968;-50
2020/12/21 02:35:57;;;;;;;28.73;17.80;;;21.70;34.20;;;;;;6175164;28;83530;-48
2020/12/21 02:38:58;;;;;;;28.23;18.10;;;21.70;34.10;;;;;;6178010;28;83195;-53
2020/12/21 02:41:58;;;;;;;31.77;18.17;;;21.80;34.00;;;;;;6181848;28;84191;-48
2020/12/21 02:44:59;;;;;;;30.30;18.10;;;21.70;33.90;;;;;;6175832;28;83980;-49
2020/12/21 02:47:59;;;;;;;29.45;18.35;;;21.70;33.80;;;;;;6176982;27;83458;-47
2020/12/21 02:51:00;;;;;;;33.05;18.63;;;21.70;33.70;;;;;;6176722;28;82945;-48
2020/12/21 02:54:00;;;;;;;29.73;18.33;;;21.80;33.70;;;;;;6174214;27;83076;-49
2020/12/21 02:57:01;;;;;;;33.40;19.45;;;21.80;33.60;;;;;;6174428;28;83402;-47
2020/12/21 03:00:01;;;;;;;31.92;19.35;;;21.70;33.30;;;;;;6175997;28;84285;-50
2020/12/21 03:03:02;;;;;;;30.85;19.02;;;21.80;33.40;;;;;;6172131;28;83906;-49
2020/12/21 03:06:02;;;;;;;30.65;18.70;;;21.80;33.50;;;;;;6175464;28;83365;-49
2020/12/21 03:09:03;;;;;;;34.88;20.25;;;21.80;33.30;;;;;;6176782;27;83235;-48
2020/12/21 03:12:03;;;;;;;35.35;19.90;;;21.70;33.20;;;;;;6176232;28;83456;-48
2020/12/21 03:15:04;;;;;;;32.33;19.30;;;21.80;33.20;;;;;;6177033;28;84491;-47
2020/12/21 03:18:04;;;;;;;32.92;20.15;;;21.70;33.20;;;;;;6180532;28;83253;-48
2020/12/21 03:21:05;;;;;;;31.15;18.85;;;21.70;33.00;;;;;;6175052;28;83555;-48
2020/12/21 03:24:05;;;;;;;30.98;19.98;;;21.70;33.30;;;;;;6177318;28;84537;-48
2020/12/21 03:27:06;;;;;;;35.13;19.27;;;21.70;33.30;;;;;;6178948;27;83886;-48
2020/12/21 03:30:06;;;;;;;32.30;19.25;;;21.70;33.30;;;;;;6180399;28;84195;-52
2020/12/21 03:33:07;;;;;;;33.05;19.95;;;21.70;33.40;;;;;;6183065;27;84074;-48
2020/12/21 03:36:07;;;;;;;32.70;21.13;;;21.70;33.30;;;;;;6181637;28;82968;-49
2020/12/21 03:39:08;;;;;;;31.00;19.35;;;21.70;33.20;;;;;;6175926;28;83443;-48
2020/12/21 03:42:08;;;;;;;33.83;20.05;;;21.70;33.30;;;;;;6175912;27;82987;-48
2020/12/21 03:45:09;;;;;;;35.97;21.55;;;21.70;33.30;;;;;;6176208;28;83594;-47
2020/12/21 03:48:09;;;;;;;34.13;20.50;;;21.70;33.30;;;;;;6175405;27;83258;-51
2020/12/21 03:51:10;;;;;;;32.88;19.52;;;21.70;33.40;;;;;;6176084;28;83806;-52
2020/12/21 03:54:10;;;;;;;36.28;21.30;;;21.60;33.50;;;;;;6173061;27;84248;-51
2020/12/21 03:57:11;;;;;;;33.22;20.05;;;21.60;33.50;;;;;;6179396;28;83725;-51
2020/12/21 04:00:11;;;;;;;33.53;19.63;;;21.70;33.80;;;;;;6177551;28;83077;-49
2020/12/21 04:03:15;;;;;;;33.60;20.30;;;21.60;33.80;;;;;;6172063;28;83722;-50
2020/12/21 04:06:15;;;;;;;30.02;18.58;;;21.60;34.10;;;;;;6174985;28;83880;-52
2020/12/21 04:09:16;;;;;;;31.70;18.85;;;21.60;34.10;;;;;;6176023;28;85859;-48
2020/12/21 04:12:16;;;;;;;33.30;20.58;;;21.70;34.40;;;;;;6178425;28;83617;-48
2020/12/21 04:15:17;;;;;;;31.65;18.50;;;21.70;34.30;;;;;;6176929;28;83697;-49
2020/12/21 04:18:17;;;;;;;33.58;19.67;;;21.60;34.50;;;;;;6173239;28;83346;-51
2020/12/21 04:21:18;;;;;;;34.38;20.35;;;21.70;34.50;;;;;;6175699;28;83275;-49
2020/12/21 04:24:18;;;;;;;32.90;18.58;;;21.60;34.40;;;;;;6187011;28;84081;-49
2020/12/21 04:27:19;;;;;;;28.85;18.50;;;21.70;34.50;;;;;;6174466;28;83682;-50
2020/12/21 04:30:19;;;;;;;30.02;17.88;;;21.70;34.60;;;;;;6181292;27;83707;-49
2020/12/21 04:33:20;;;;;;;33.53;18.60;;;21.60;34.30;;;;;;6173899;28;83594;-49
2020/12/21 04:36:20;;;;;;;30.38;17.27;;;21.60;34.50;;;;;;6174092;27;83517;-49
2020/12/21 04:39:21;;;;;;;33.22;18.95;;;21.60;34.50;;;;;;6172810;28;89702;-48
2020/12/21 04:42:24;;;;;;;32.20;17.70;;;21.60;34.20;;;;;;6179214;27;84377;-47
2020/12/21 04:45:24;;;;;;;29.52;17.08;;;21.70;34.20;;;;;;6173962;28;83374;-47
2020/12/21 04:48:25;;;;;;;26.45;16.00;;;21.70;34.50;;;;;;6175654;27;83594;-51
2020/12/21 04:51:25;;;;;;;29.77;18.30;;;21.80;34.60;;;;;;6176589;28;83439;-49
2020/12/21 04:54:26;;;;;;;28.80;17.83;;;21.80;33.70;;;;;;6178736;27;83477;-48
2020/12/21 04:57:26;;;;;;;33.50;19.33;;;21.90;33.90;;;;;;6166996;28;83370;-48
2020/12/21 05:00:27;;;;;;;29.98;17.60;;;22.00;33.10;;;;;;6175874;27;84070;-47
2020/12/21 05:03:27;;;;;;;31.88;19.40;;;22.00;33.20;;;;;;6180461;28;83448;-49
2020/12/21 05:06:28;;;;;;;30.58;18.75;;;22.10;32.90;;;;;;6178560;27;83348;-48
2020/12/21 05:09:28;;;;;;;32.42;19.15;;;22.10;32.80;;;;;;6179884;28;83448;-48
2020/12/21 05:12:29;;;;;;;36.58;20.45;;;22.20;32.70;;;;;;6177328;28;84089;-51
2020/12/21 05:15:29;;;;;;;32.20;20.48;;;22.20;32.50;;;;;;6182244;28;84843;-52
2020/12/21 05:18:30;;;;;;;33.67;19.92;;;22.20;32.90;;;;;;6178048;28;82880;-49
2020/12/21 05:21:30;;;;;;;29.08;18.95;;;22.30;32.10;;;;;;6179025;28;84370;-49
2020/12/21 05:24:31;;;;;;;34.67;19.50;;;22.30;31.80;;;;;;6171045;28;83346;-50
2020/12/21 05:27:31;;;;;;;32.05;19.98;;;22.40;31.60;;;;;;6180844;28;83842;-48
2020/12/21 05:30:32;;;;;;;34.00;20.33;;;22.40;31.60;;;;;;6179922;28;93846;-52
2020/12/21 05:33:32;;;;;;;32.67;19.92;;;22.40;31.50;;;;;;6181080;28;83943;-51
2020/12/21 05:36:33;;;;;;;35.90;21.17;;;22.50;31.40;;;;;;6176088;27;85802;-49
2020/12/21 05:39:33;;;;;;;34.63;21.27;;;22.50;31.90;;;;;;6178805;28;83653;-53
2020/12/21 05:42:34;;;;;;;34.38;20.55;;;22.50;31.40;;;;;;6178220;28;83926;-52
2020/12/21 05:45:34;;;;;;;38.95;20.95;;;22.50;31.40;;;;;;6175338;27;83248;-51
2020/12/21 05:48:35;;;;;;;33.67;20.52;;;22.60;31.40;;;;;;6172500;28;83484;-50
2020/12/21 05:51:38;;;;;;;34.20;21.80;;;22.60;31.20;;;;;;6180761;28;83363;-52
2020/12/21 05:54:39;;;;;;;32.85;20.95;;;22.60;31.00;;;;;;6175157;28;90651;-49
2020/12/21 05:57:39;;;;;;;34.25;21.00;;;22.60;30.90;;;;;;6175678;28;85474;-49
2020/12/21 06:00:40;;;;;;;40.22;21.13;;;22.70;30.90;;;;;;6179652;28;83000;-48
2020/12/21 06:03:41;;;;;;;32.97;20.35;;;22.70;30.80;;;;;;6173001;28;83169;-52
2020/12/21 06:06:41;;;;;;;30.40;17.63;;;22.60;31.60;;;;;;6166172;28;83549;-48
2020/12/21 06:09:42;;;;;;;26.52;15.45;;;22.60;33.00;;;;;;6172514;28;86242;-48
2020/12/21 06:12:42;;;;;;;24.38;14.27;;;22.60;34.60;;;;;;6170919;28;83672;-54
2020/12/21 06:15:43;;;;;;;23.80;13.55;;;22.60;35.60;;;;;;6171491;28;82782;-51
2020/12/21 06:18:43;;;;;;;22.95;13.55;;;22.60;35.90;;;;;;6166879;28;84019;-52
2020/12/21 06:21:44;;;;;;;20.67;12.65;;;22.60;36.90;;;;;;6170258;28;83294;-50
2020/12/21 06:24:45;;;;;;;20.30;12.02;;;22.60;36.80;;;;;;6172217;28;84113;-51
2020/12/21 06:27:45;;;;;;;20.42;11.50;;;22.60;37.30;;;;;;6173109;28;85221;-52
2020/12/21 06:30:46;;;;;;;18.30;10.20;;;22.60;38.10;;;;;;6169977;28;84831;-47
2020/12/21 06:33:47;;;;;;;16.88;10.48;;;22.60;38.90;;;;;;6173643;28;83596;-52
2020/12/21 06:36:47;;;;;;;14.93;9.93;;;22.60;39.70;;;;;;6167847;28;83967;-52
2020/12/21 06:39:48;;;;;;;17.23;10.52;;;22.60;39.60;;;;;;6178031;28;82924;-52
2020/12/21 06:42:48;;;;;;;14.82;9.63;;;22.50;40.30;;;;;;6173021;28;84130;-52
2020/12/21 06:45:49;;;;;;;15.70;9.45;;;22.40;40.90;;;;;;6178087;28;88356;-52
2020/12/21 06:48:49;;;;;;;17.10;9.13;;;22.30;40.80;;;;;;6178288;28;80335;-52
2020/12/21 06:51:50;;;;;;;15.65;9.02;;;22.30;41.00;;;;;;6172848;28;80474;-51
2020/12/21 06:54:52;;;;;;;16.13;10.15;;;22.20;41.40;;;;;;6188984;28;83203;-50
2020/12/21 06:57:53;;;;;;;20.13;9.57;;;22.30;41.10;;;;;;6170619;28;83472;-50
2020/12/21 07:00:53;;;;;;;14.57;9.00;;;22.20;41.50;;;;;;6171330;27;82896;-49
2020/12/21 07:03:54;;;;;;;16.15;8.60;;;22.20;41.70;;;;;;6177302;28;80817;-48
2020/12/21 07:06:54;;;;;;;15.02;9.98;;;22.20;42.10;;;;;;6174859;28;81295;-49
2020/12/21 07:09:55;;;;;;;108.07;42.20;;;22.20;41.80;;;;;;6174690;28;82986;-50
2020/12/21 07:12:55;;;;;;;241.45;91.32;;;22.20;42.00;;;;;;6168245;27;83370;-50
2020/12/21 07:15:56;;;;;;;347.27;128.13;;;22.30;41.70;;;;;;6164855;28;83629;-48
2020/12/21 07:18:56;;;;;;;373.45;144.80;;;22.20;42.40;;;;;;6166676;28;85869;-49
2020/12/21 07:21:57;;;;;;;300.45;113.78;;;22.20;42.70;;;;;;6169377;28;88914;-50
2020/12/21 07:24:57;;;;;;;392.80;147.80;;;22.20;42.80;;;;;;6166020;28;85370;-49
2020/12/21 07:27:58;;;;;;;435.30;170.30;;;22.20;42.90;;;;;;6167529;28;86328;-49
2020/12/21 07:30:58;;;;;;;490.20;184.80;;;22.20;42.60;;;;;;6163606;28;87509;-51
2020/12/21 07:33:59;;;;;;;507.80;204.55;;;22.20;42.50;;;;;;6168313;28;85825;-48
2020/12/21 07:36:59;;;;;;;514.42;212.98;;;22.20;42.30;;;;;;6167671;28;85479;-51
2020/12/21 07:40:00;;;;;;;407.48;154.02;;;22.30;42.40;;;;;;6163967;28;86590;-52
2020/12/21 07:43:02;;;;;;;300.73;115.45;;;22.20;42.90;;;;;;6163494;28;86151;-50
2020/12/21 07:46:03;;;;;;;242.50;98.72;;;22.20;43.00;;;;;;6170936;28;85598;-51
2020/12/21 07:49:03;;;;;;;232.65;85.35;;;22.10;42.90;;;;;;6172794;27;86575;-49
2020/12/21 07:52:04;;;;;;;170.27;68.30;;;22.10;42.80;;;;;;6171696;28;83496;-49
2020/12/21 07:55:04;;;;;;;123.68;53.33;;;22.20;42.90;;;;;;6173678;28;83725;-47
2020/12/21 07:58:05;;;;;;;118.60;47.38;;;22.20;43.10;;;;;;6172089;28;83532;-47
2020/12/21 08:01:06;;;;;;;99.38;39.92;;;22.20;43.20;;;;;;6171870;28;83450;-51
2020/12/21 08:04:07;;;;;;;75.95;33.30;;;22.20;43.50;;;;;;6168658;28;85827;-47
2020/12/21 08:07:07;;;;;;;76.97;30.70;;;22.20;43.40;;;;;;6167744;27;83327;-47
2020/12/21 08:10:08;;;;;;;58.42;27.10;;;22.20;43.80;;;;;;6168088;28;83067;-50
2020/12/21 08:13:08;;;;;;;55.63;25.20;;;22.10;44.00;;;;;;6172302;27;83264;-53
2020/12/21 08:16:09;;;;;;;41.63;20.70;;;22.10;43.80;;;;;;6171488;28;83915;-48
2020/12/21 08:19:13;;;;;;;42.42;19.92;;;22.20;43.20;;;;;;6171362;28;84540;-49
2020/12/21 08:22:13;;;;;;;36.22;17.02;;;22.20;42.80;;;;;;6172006;28;83225;-49
2020/12/21 08:25:14;;;;;;;31.58;15.95;;;22.10;42.80;;;;;;6169811;27;84154;-51
2020/12/21 08:28:14;;;;;;;27.17;14.30;;;22.10;42.60;;;;;;6177025;28;83907;-50
2020/12/21 08:31:15;;;;;;;25.67;13.55;;;22.10;42.20;;;;;;6175235;28;83207;-49
2020/12/21 08:34:16;;;;;;;23.52;13.13;;;22.10;42.00;;;;;;6175739;28;83413;-51
2020/12/21 08:37:16;;;;;;;24.23;13.05;;;22.00;41.90;;;;;;6172174;27;84609;-51
2020/12/21 08:40:18;;;;;;;23.33;12.40;;;22.00;41.60;;;;;;6167424;28;84184;-51
2020/12/21 08:43:18;;;;;;;18.67;10.75;;;22.00;40.60;;;;;;6159964;28;83693;-52
2020/12/21 08:46:19;;;;;;;22.27;12.55;;;22.10;40.30;;;;;;6170478;28;83537;-47
2020/12/21 08:49:19;;;;;;;21.67;10.77;;;22.20;39.50;;;;;;6149043;28;85222;-51
2020/12/21 08:52:20;;;;;;;17.20;10.07;;;22.30;39.10;;;;;;6156991;28;83329;-49
2020/12/21 08:55:20;;;;;;;17.67;10.00;;;22.40;38.50;;;;;;6176249;28;84148;-48
2020/12/21 08:58:21;;;;;;;23.55;12.48;;;22.40;37.80;;;;;;6176918;27;83693;-49
2020/12/21 09:01:21;;;;;;;18.90;10.98;;;22.50;38.30;;;;;;6171310;28;83293;-49
2020/12/21 09:04:22;;;;;;;26.23;13.48;;;22.60;39.20;;;;;;6167917;28;84441;-50
2020/12/21 09:07:22;;;;;;;23.08;11.57;;;22.60;38.80;;;;;;6174498;28;84376;-50
2020/12/21 09:10:23;;;;;;;21.10;11.60;;;22.70;39.20;;;;;;6173182;28;83323;-54
2020/12/21 09:13:23;;;;;;;21.23;11.73;;;22.70;38.80;;;;;;6170501;27;83640;-52
2020/12/21 09:16:24;;;;;;;28.50;12.73;;;22.80;39.10;;;;;;6174234;28;83189;-52
2020/12/21 09:19:25;;;;;;;19.05;11.52;;;22.80;39.20;;;;;;6173856;27;83170;-54
2020/12/21 09:22:26;;;;;;;24.40;11.85;;;22.80;38.80;;;;;;6169407;28;84700;-54
2020/12/21 09:25:26;;;;;;;17.00;10.05;;;22.90;38.90;;;;;;6175005;28;83374;-51
2020/12/21 09:28:27;;;;;;;20.55;11.20;;;22.90;39.00;;;;;;6170146;28;83760;-49
2020/12/21 09:31:27;;;;;;;20.45;11.60;;;23.00;38.40;;;;;;6171126;28;83970;-50
2020/12/21 09:34:28;;;;;;;18.50;11.25;;;23.00;38.70;;;;;;6174501;27;83028;-53
2020/12/21 09:37:28;;;;;;;20.70;11.27;;;23.00;38.20;;;;;;6173840;28;83289;-51
2020/12/21 09:40:29;;;;;;;19.90;10.18;;;23.00;38.70;;;;;;6169364;27;84582;-52
2020/12/21 09:43:29;;;;;;;17.70;9.30;;;23.00;38.70;;;;;;6174359;28;84131;-49
2020/12/21 09:46:30;;;;;;;17.25;10.45;;;23.00;39.10;;;;;;6177566;27;81933;-53
2020/12/21 09:49:30;;;;;;;18.05;9.75;;;23.00;38.40;;;;;;6176391;28;83283;-51
2020/12/21 09:52:31;;;;;;;20.15;11.07;;;23.00;38.50;;;;;;6170701;28;81988;-50
2020/12/21 09:55:32;;;;;;;16.77;10.30;;;23.00;38.40;;;;;;6171405;28;84742;-53
2020/12/21 09:58:32;;;;;;;17.27;9.77;;;23.00;38.80;;;;;;6173767;27;83210;-52
2020/12/21 10:01:33;;;;;;;16.85;10.45;;;23.00;38.90;;;;;;6173307;28;83139;-47
2020/12/21 10:04:33;;;;;;;19.85;10.75;;;23.00;39.10;;;;;;6173092;27;83183;-47
2020/12/21 10:07:34;;;;;;;19.08;11.20;;;23.00;39.50;;;;;;6176802;28;83705;-50
2020/12/21 10:10:34;;;;;;;18.90;11.80;;;23.00;39.50;;;;;;6164893;28;83476;-49
2020/12/21 10:13:35;;;;;;;21.58;11.93;;;23.00;39.60;;;;;;6168927;28;83374;-49
2020/12/21 10:16:35;;;;;;;19.90;10.77;;;23.00;39.10;;;;;;6169731;28;82860;-50
2020/12/21 10:19:36;;;;;;;19.55;10.77;;;23.00;39.60;;;;;;6171150;28;83822;-53
2020/12/21 10:22:37;;;;;;;23.08;11.05;;;22.90;39.50;;;;;;6168731;28;83480;-54
2020/12/21 10:25:38;;;;;;;20.02;10.02;;;23.00;39.80;;;;;;6174008;27;84142;-54
2020/12/21 10:28:38;;;;;;;17.67;11.48;;;22.90;39.50;;;;;;6174330;28;83622;-49
2020/12/21 10:31:39;;;;;;;16.75;9.70;;;22.90;39.80;;;;;;6168272;27;83076;-52
2020/12/21 10:34:39;;;;;;;15.02;9.85;;;22.90;39.70;;;;;;6177808;28;83004;-49
2020/12/21 10:37:40;;;;;;;18.92;11.50;;;22.90;39.50;;;;;;6172012;28;82122;-49
2020/12/21 10:40:40;;;;;;;21.17;11.45;;;22.90;39.60;;;;;;6171719;27;83161;-50
2020/12/21 10:43:41;;;;;;;19.00;10.77;;;22.90;39.60;;;;;;6169979;28;83495;-54
2020/12/21 10:46:41;;;;;;;27.98;13.85;;;22.90;40.40;;;;;;6173833;28;83622;-53
2020/12/21 10:49:42;;;;;;;22.98;12.85;;;22.90;40.40;;;;;;6174147;28;86604;-49
2020/12/21 10:52:42;;;;;;;25.98;14.18;;;22.90;41.20;;;;;;6168271;28;83543;-53
2020/12/21 10:55:43;;;;;;;24.77;14.48;;;22.90;41.30;;;;;;6174371;28;83698;-49
2020/12/21 10:58:43;;;;;;;28.40;15.63;;;22.90;41.80;;;;;;6166165;28;83472;-52
2020/12/21 11:01:44;;;;;;;30.55;17.88;;;22.90;42.40;;;;;;6175663;28;83802;-49
2020/12/21 11:04:45;;;;;;;38.08;22.25;;;22.90;43.20;;;;;;6175673;28;83296;-52
2020/12/21 11:07:45;;;;;;;60.15;34.50;;;23.00;43.80;;;;;;6166855;28;83474;-51
2020/12/21 11:10:46;;;;;;;78.78;43.13;;;23.00;43.40;;;;;;6172563;28;83439;-53
2020/12/21 11:13:46;;;;;;;71.80;41.88;;;23.00;42.90;;;;;;6172934;27;83363;-50
2020/12/21 11:16:47;;;;;;;74.65;42.00;;;23.00;42.60;;;;;;6171148;28;84612;-53
2020/12/21 11:19:48;;;;;;;74.18;38.65;;;23.00;42.20;;;;;;6172491;28;83315;-50
2020/12/21 11:22:48;;;;;;;59.30;35.65;;;23.00;42.50;;;;;;6168447;28;83257;-53
2020/12/21 11:25:49;;;;;;;55.15;32.08;;;22.90;41.80;;;;;;6170148;28;85557;-54
2020/12/21 11:28:49;;;;;;;52.63;30.00;;;22.90;41.60;;;;;;6173079;28;85050;-51
2020/12/21 11:31:50;;;;;;;47.55;28.60;;;22.90;41.20;;;;;;6167761;27;85376;-51
2020/12/21 11:34:50;;;;;;;48.65;29.70;;;22.80;41.20;;;;;;6173128;28;83794;-49
2020/12/21 11:37:51;;;;;;;56.13;33.95;;;22.80;41.30;;;;;;6169139;28;83186;-53
2020/12/21 11:40:51;;;;;;;60.15;35.20;;;22.90;41.20;;;;;;6167330;28;83420;-53
2020/12/21 11:43:52;;;;;;;62.30;35.83;;;22.90;40.90;;;;;;6173105;28;83256;-53
2020/12/21 11:46:53;;;;;;;68.65;36.60;;;22.90;40.60;;;;;;6166744;28;83863;-52
2020/12/21 11:49:53;;;;;;;69.63;39.05;;;23.00;40.20;;;;;;6173285;28;83294;-51
2020/12/21 11:52:55;;;;;;;64.93;37.83;;;23.00;40.20;;;;;;6163323;27;83420;-53
2020/12/21 11:55:55;;;;;;;68.55;38.40;;;23.00;39.80;;;;;;6153172;28;83017;-52
2020/12/21 11:58:56;;;;;;;62.38;38.92;;;23.00;39.30;;;;;;6170977;28;84089;-51
2020/12/21 12:01:56;;;;;;;61.60;37.85;;;23.10;39.30;;;;;;6184178;28;83244;-53
2020/12/21 12:04:57;;;;;;;68.57;39.45;;;23.10;39.50;;;;;;6177608;27;85973;-50
2020/12/21 12:07:58;;;;;;;76.10;41.65;;;23.10;38.50;;;;;;6181832;28;83449;-53
2020/12/21 12:10:58;;;;;;;66.88;39.03;;;23.10;38.10;;;;;;6179716;28;83744;-54
2020/12/21 12:13:59;;;;;;;72.68;40.90;;;23.10;38.30;;;;;;6177511;27;83441;-52
2020/12/21 12:16:59;;;;;;;73.13;41.67;;;23.10;38.50;;;;;;6165545;28;84851;-52
2020/12/21 12:20:00;;;;;;;68.47;41.75;;;23.10;38.40;;;;;;6152624;28;83403;-49
2020/12/21 12:23:00;;;;;;;81.10;42.13;;;23.10;38.70;;;;;;6150396;28;83756;-49
2020/12/21 12:26:01;;;;;;;73.00;41.53;;;23.10;38.10;;;;;;6155360;28;83887;-49
2020/12/21 12:29:01;;;;;;;71.10;42.50;;;23.10;37.90;;;;;;6176714;28;83755;-51
2020/12/21 12:32:02;;;;;;;72.10;41.40;;;23.10;37.60;;;;;;6181106;28;85703;-54
2020/12/21 12:35:02;;;;;;;72.05;41.63;;;23.20;37.10;;;;;;6182737;28;84010;-53
2020/12/21 12:38:03;;;;;;;66.88;39.53;;;23.30;37.10;;;;;;6163731;28;85892;-53
2020/12/21 12:41:03;;;;;;;74.32;41.47;;;23.30;36.60;;;;;;6163891;28;83212;-52
2020/12/21 12:44:04;;;;;;;68.85;41.80;;;23.40;36.40;;;;;;6174523;28;91430;-51
2020/12/21 12:47:04;;;;;;;67.15;42.00;;;23.40;36.40;;;;;;6176062;28;83308;-49
2020/12/21 12:50:06;;;;;;;67.53;41.22;;;23.40;36.20;;;;;;6175662;27;84390;-48
2020/12/21 12:53:07;;;;;;;79.25;40.22;;;23.30;36.40;;;;;;6167588;28;83239;-49
2020/12/21 12:56:08;;;;;;;64.68;39.40;;;23.30;36.10;;;;;;6170710;27;85551;-47
2020/12/21 12:59:08;;;;;;;64.53;39.88;;;23.20;36.20;;;;;;6163450;28;83424;-49
2020/12/21 13:02:09;;;;;;;70.95;40.58;;;23.20;36.50;;;;;;6165158;28;83672;-46
2020/12/21 13:05:09;;;;;;;71.85;40.90;;;23.10;36.80;;;;;;6161659;28;84166;-46
2020/12/21 13:08:10;;;;;;;64.15;39.05;;;23.10;36.90;;;;;;6161960;28;83465;-49
2020/12/21 13:11:10;;;;;;;69.20;38.85;;;23.10;36.70;;;;;;6163612;28;83701;-46
2020/12/21 13:14:11;;;;;;;69.38;39.67;;;23.10;37.10;;;;;;6172268;28;83303;-51
2020/12/21 13:17:11;;;;;;;67.63;39.53;;;23.00;37.20;;;;;;6166375;28;83913;-47
2020/12/21 13:20:12;;;;;;;62.35;37.50;;;23.00;37.10;;;;;;6173148;28;83341;-50
2020/12/21 13:23:12;;;;;;;62.33;36.78;;;23.00;37.10;;;;;;6168779;28;88234;-47
2020/12/21 13:26:13;;;;;;;59.65;37.00;;;23.00;37.20;;;;;;6171102;28;83208;-47
2020/12/21 13:29:13;;;;;;;59.80;37.42;;;23.00;36.80;;;;;;6185509;28;83681;-48
2020/12/21 13:32:14;;;;;;;63.45;38.40;;;23.00;36.00;;;;;;6176668;27;83409;-48
2020/12/21 13:35:14;;;;;;;58.97;36.83;;;23.00;36.10;;;;;;6176435;28;83508;-51
2020/12/21 13:38:15;;;;;;;67.93;37.13;;;23.10;35.80;;;;;;6168148;27;83101;-52
2020/12/21 13:41:16;;;;;;;56.05;35.35;;;23.10;35.70;;;;;;6176488;28;83236;-52
2020/12/21 13:44:16;;;;;;;60.55;37.55;;;23.10;35.70;;;;;;6173860;28;83442;-50
2020/12/21 13:47:17;;;;;;;60.60;38.03;;;23.20;35.50;;;;;;6175825;28;84215;-53
2020/12/21 13:50:17;;;;;;;62.80;36.63;;;23.20;35.10;;;;;;6170896;27;83457;-49
2020/12/21 13:53:18;;;;;;;55.13;34.60;;;23.20;34.90;;;;;;6167882;28;82744;-50
2020/12/21 13:56:19;;;;;;;56.17;35.70;;;23.20;34.80;;;;;;6174188;28;83551;-50
2020/12/21 13:59:19;;;;;;;57.95;35.53;;;23.20;34.60;;;;;;6175217;28;83489;-51
2020/12/21 14:02:20;;;;;;;61.47;35.08;;;23.20;34.50;;;;;;6165684;28;82905;-51
2020/12/21 14:05:20;;;;;;;59.63;37.08;;;23.20;34.50;;;;;;6169633;28;83416;-49
2020/12/21 14:08:21;;;;;;;55.22;34.20;;;23.20;34.20;;;;;;6174499;27;83461;-50
2020/12/21 14:11:21;;;;;;;56.13;35.42;;;23.30;34.30;;;;;;6173967;28;83785;-50
2020/12/21 14:14:22;;;;;;;61.00;36.20;;;23.30;34.20;;;;;;6175281;27;83227;-49
2020/12/21 14:17:22;;;;;;;61.17;35.17;;;23.30;34.10;;;;;;6174259;28;83077;-50
2020/12/21 14:20:23;;;;;;;55.30;35.45;;;23.30;34.00;;;;;;6173147;28;82921;-49
2020/12/21 14:23:23;;;;;;;59.28;34.72;;;23.30;34.00;;;;;;6175112;28;83408;-50
2020/12/21 14:26:24;;;;;;;55.55;35.13;;;23.30;34.60;;;;;;6158733;28;83646;-50
2020/12/21 14:29:25;;;;;;;59.88;36.08;;;23.30;33.80;;;;;;6150598;28;83139;-49
2020/12/21 14:32:25;;;;;;;56.63;34.33;;;23.20;33.70;;;;;;6166496;28;84189;-51
2020/12/21 14:35:27;;;;;;;55.45;34.40;;;23.20;34.00;;;;;;6172570;27;84639;-49
2020/12/21 14:38:28;;;;;;;53.13;33.50;;;23.10;33.60;;;;;;6171651;28;84342;-51
2020/12/21 14:41:28;;;;;;;50.08;33.38;;;23.20;33.70;;;;;;6174467;27;84242;-49
2020/12/21 14:44:29;;;;;;;52.88;32.65;;;23.10;34.30;;;;;;6173063;28;83122;-48
2020/12/21 14:47:30;;;;;;;48.83;32.25;;;23.10;34.50;;;;;;6171823;27;83431;-49
2020/12/21 14:50:30;;;;;;;56.55;33.13;;;23.10;34.10;;;;;;6175397;28;83344;-49
2020/12/21 14:53:31;;;;;;;50.40;32.75;;;23.10;34.60;;;;;;6173501;28;83573;-49
2020/12/21 14:56:31;;;;;;;53.92;32.22;;;23.10;35.10;;;;;;6168572;28;83863;-49
2020/12/21 14:59:32;;;;;;;51.88;34.53;;;23.10;35.40;;;;;;6171471;28;83380;-50
2020/12/21 15:02:32;;;;;;;57.90;36.05;;;23.10;35.00;;;;;;6174173;27;85762;-50
2020/12/21 15:05:33;;;;;;;59.97;38.15;;;23.10;36.30;;;;;;6174337;28;83547;-49
2020/12/21 15:08:33;;;;;;;58.40;37.60;;;23.10;37.10;;;;;;6165739;28;85695;-51
2020/12/21 15:11:34;;;;;;;56.40;37.05;;;23.20;37.30;;;;;;6172581;28;83978;-49
2020/12/21 15:14:34;;;;;;;57.45;38.10;;;23.20;37.40;;;;;;6173792;28;85706;-50